Have a Safe July 4th! 

Flight Track Log - Related Links

Times and Time Zones

All times are in EDT time to prevent confusion due to time zone crossing. See the SWA3678 flight status page for this flight to view local times or setup timezone preferences in your user account.

Time Position Orientation Groundspeed Altitude Reporting Facility
EDT Latitude Longitude Course Direction KTS MPH feet Rate Location/Type
Sat 11:48:11 AM 39.1308 -76.7394 90° East 206 237 4,900  Level Washington Center
Sat 11:49:11 AM 39.1297 -76.6350 91° East 173 199 6,900 2,492 Climbing Washington Center
Sat 11:50:09 AM 39.1369 -76.5228 85° East 245 282 9,800 2,773 Climbing Washington Center
Sat 11:51:10 AM 39.1400 -76.3997 88° East 290 334 12,400 2,803 Climbing Washington Center
Sat 11:52:11 AM 39.1469 -76.2686 86° East 335 386 15,500 2,803 Climbing Washington Center
Sat 11:53:00 AM 39.1667 -76.6382 90° East  Level FlightAware Approximate
Sat 11:53:12 AM 39.1622 -76.1378 81° East 385 443 18,100  Level Washington Center
Sat 11:54:10 AM 39.1794 -75.9906 81° East 405 466 21,100 2,542 Climbing Washington Center
Sat 11:55:10 AM 39.2153 -75.8461 72° East 410 472 23,100 1,967 Climbing Washington Center
Sat 11:56:12 AM 39.3072 -75.7311 44° Northeast 420 483 25,100 2,500 Climbing Washington Center
Sat 11:57:10 AM 39.4011 -75.6103 45° Northeast 447 514 28,100 1,983 Climbing Washington Center
Sat 11:58:10 AM 39.4906 -75.4947 45° Northeast 447 514 29,000 446 Climbing Washington Center
Sat 11:59:11 AM 39.5842 -75.3761 44° Northeast 452 520 29,000  Level Washington Center
Sat 12:00:11 PM 39.6694 -75.2600 46° Northeast 452 520 29,000  Level Washington Center
Sat 12:01:09 PM 39.7625 -75.1192 49° Northeast 457 526 29,000  Level Washington Center
Sat 12:02:52 PM 39.9028 -74.9244 47° Northeast 465 535 29,000  Level New York Center
Sat 12:03:53 PM 40.0114 -74.8036 40° Northeast 460 529 29,000  Level New York Center
Sat 12:04:54 PM 40.1025 -74.6922 43° Northeast 454 522 29,000  Level New York Center
Sat 12:05:55 PM 40.1981 -74.5808 42° Northeast 454 522 29,000  Level New York Center
Sat 12:06:52 PM 40.2803 -74.4792 43° Northeast 454 522 29,000  Level New York Center
Sat 12:08:39 PM 40.4472 -74.2781 42° Northeast 450 518 29,000  Level Boston Center
Sat 12:09:39 PM 40.5408 -74.1633 43° Northeast 455 524 29,000 -550 Level Boston Center
Sat 12:10:39 PM 40.6319 -74.0508 43° Northeast 455 524 27,900 -2,000 Descending Boston Center
Sat 12:11:39 PM 40.7400 -73.9247 41° Northeast 455 524 25,000 -1,950 Descending Boston Center
Sat 12:12:39 PM 40.8353 -73.8117 42° Northeast 455 524 24,000 -800 Descending Boston Center
Sat 12:13:39 PM 40.9283 -73.6983 43° Northeast 448 516 23,400 -500 Descending Boston Center
Sat 12:14:39 PM 41.0192 -73.5872 43° Northeast 443 510 23,000 -600 Descending Boston Center
Sat 12:15:39 PM 41.1200 -73.4872 37° Northeast 443 510 22,200 -900 Descending Boston Center
Sat 12:16:39 PM 41.2350 -73.4475 15° North 422 486 21,200 -1,000 Descending Boston Center
Sat 12:17:39 PM 41.3500 -73.4161 12° North 417 480 20,200 -1,000 Descending Boston Center
Sat 12:18:39 PM 41.4667 -73.4264 356° North 412 474 19,200 -600 Descending Boston Center
Sat 12:19:39 PM 41.5747 -73.4447 353° North 399 459 19,000 -450 Descending Boston Center
Sat 12:20:39 PM 41.6850 -73.4603 354° North 399 459 18,300 -1,800 Descending Boston Center
Sat 12:21:39 PM 41.7911 -73.4786 353° North 389 448 15,400 -2,500 Descending Boston Center
Sat 12:22:39 PM 41.9017 -73.4944 354° North 389 448 13,300 -2,031 Descending Boston Center
Sat 12:23:49 PM 42.0244 -73.5133 353° North 368 423 11,000 -1,290 Descending Boston Center
Sat 12:24:26 PM 42.0764 -73.5225 353° North 353 406 11,000  Level Boston Center
Sat 12:25:26 PM 42.1786 -73.5158 North 336 387 11,000 -298 Level Boston Center
Sat 12:26:27 PM 42.2725 -73.5119 North 331 381 10,400 -934 Descending Boston Center
Sat 12:27:28 PM 42.3514 -73.5300 350° North 296 341 9,100 -1,409 Descending Boston Center
Sat 12:28:22 PM 42.4219 -73.5622 341° North 287 330 7,700 -1,437 Descending Boston Center
Sat 12:28:39 PM 42.4364 -73.5653 351° North 287 330 7,400 -1,309 Descending Boston Center
Sat 12:29:17 PM 42.4925 -73.5917 341° North 288 331 6,500 -1,300 Descending Boston Center
Sat 12:29:39 PM 42.5175 -73.6006 345° North 287 330 6,100 -1,400 Descending Boston Center
Sat 12:30:17 PM 42.5650 -73.6242 340° North 279 321 5,100 -1,300 Descending Boston Center
Sat 12:30:39 PM 42.5858 -73.6328 343° North 287 330 4,800 -1,082 Descending Boston Center
Sat 12:31:18 PM 42.6400 -73.6453 350° North 279 321 4,000 -800 Descending Boston Center
Sat 12:31:39 PM 42.6669 -73.6431 North 282 325 4,000  Level Boston Center
Sat 12:32:19 PM 42.7169 -73.6467 357° North 278 320 4,000  Level Boston Center
Sat 12:32:39 PM 42.7442 -73.6417 North 272 313 4,000 -800 Level Boston Center
Sat 12:33:19 PM 42.7961 -73.6511 352° North 278 320 3,200 -1,000 Descending Boston Center
Sat 12:33:39 PM 42.8192 -73.6544 354° North 272 313 3,000 -197 Descending Boston Center
Sat 12:34:20 PM 42.8711 -73.6697 348° North 244 281 3,000  Level Boston Center
Sat 12:34:39 PM 42.8856 -73.6700 359° North 256 295 3,000 -689 Level Boston Center
Sat 12:35:21 PM 42.9103 -73.7100 310° West 194 223 2,300 -900 Descending Boston Center
Sat 12:35:39 PM 42.9100 -73.7300 269° West 178 205 2,100 -300 Descending Boston Center
Sat 12:36:21 PM 42.9094 -73.7836 269° West 176 203 2,000 -100 Descending Boston Center
Sat 12:36:39 PM 42.9008 -73.7919 215° Southwest 173 199 2,000  Level Boston Center
Sat 12:37:22 PM 42.8714 -73.8111 206° Southwest 152 175 2,000  Level Boston Center
Sat 12:37:39 PM 42.8694 -73.8111 180° South 146 168 2,000 -222 Level Boston Center
Sat 12:38:16 PM 42.8361 -73.8106 179° South 140 161 1,800 -551 Descending Boston Center
Sat 12:39:17 PM 42.8006 -73.8097 179° South 121 139 1,100 -639 Descending Boston Center
Sat 12:40:18 PM 42.7672 -73.8061 175° South 119 137 500 -590 Descending Boston Center

Login

Don't have an account? Register now (free) for customized features, flight alerts, and more!